createdAt,value
2018-09-04T00:02:15.813Z,45.61
2018-09-04T00:04:47.329Z,45.26
2018-09-04T00:07:21.372Z,45.80
2018-09-04T00:09:53.848Z,45.74
2018-09-04T00:12:25.403Z,45.25
2018-09-04T00:14:56.801Z,45.98
2018-09-04T00:17:28.318Z,45.93
2018-09-04T00:20:00.218Z,46.02
2018-09-04T00:22:31.728Z,45.20
2018-09-04T00:25:03.207Z,45.69
2018-09-04T00:27:34.700Z,45.93
2018-09-04T00:30:06.992Z,45.97
2018-09-04T00:32:38.738Z,44.84
2018-09-04T00:35:11.547Z,45.33
2018-09-04T00:37:42.839Z,45.01
2018-09-04T00:40:14.440Z,45.66
2018-09-04T00:42:45.918Z,45.42
2018-09-04T00:45:16.583Z,45.50
2018-09-04T00:47:48.231Z,45.44
2018-09-04T00:50:19.754Z,45.96
2018-09-04T00:52:50.865Z,45.56
2018-09-04T00:55:22.284Z,45.79
2018-09-04T00:57:53.724Z,45.49
2018-09-04T01:00:28.663Z,45.18
2018-09-04T01:03:00.229Z,45.65
2018-09-04T01:05:31.733Z,45.96
2018-09-04T01:08:03.729Z,45.30
2018-09-04T01:10:35.313Z,45.37
2018-09-04T01:13:06.781Z,44.94
2018-09-04T01:15:38.308Z,45.81
2018-09-04T01:18:10.202Z,45.88
2018-09-04T01:20:41.724Z,45.92
2018-09-04T01:23:13.429Z,45.96
2018-09-04T01:25:44.877Z,45.51
2018-09-04T01:28:16.501Z,46.62
2018-09-04T01:30:47.960Z,45.21
2018-09-04T01:33:18.548Z,45.39
2018-09-04T01:35:49.955Z,45.92
2018-09-04T01:38:20.597Z,45.37
2018-09-04T01:40:52.132Z,46.19
2018-09-04T01:43:23.702Z,46.32
2018-09-04T01:45:55.311Z,46.21
2018-09-04T01:48:26.824Z,45.38
2018-09-04T01:50:58.341Z,46.23
2018-09-04T01:53:29.717Z,45.76
2018-09-04T01:56:01.418Z,45.65
2018-09-04T01:58:32.799Z,46.04
2018-09-04T02:01:04.442Z,45.71
2018-09-04T02:03:35.986Z,45.37
2018-09-04T02:06:07.557Z,45.89
2018-09-04T02:08:38.996Z,45.50
2018-09-04T02:11:10.760Z,46.04
2018-09-04T02:13:42.304Z,46.28
2018-09-04T02:16:13.818Z,46.06
2018-09-04T02:18:45.438Z,46.05
2018-09-04T02:21:16.820Z,46.22
2018-09-04T02:23:48.332Z,45.67
2018-09-04T02:26:19.797Z,45.73
2018-09-04T02:28:51.301Z,46.16
2018-09-04T02:31:22.800Z,46.23
2018-09-04T02:33:54.013Z,46.16
2018-09-04T02:36:25.381Z,46.43
2018-09-04T02:38:57.646Z,46.21
2018-09-04T02:41:29.219Z,45.88
2018-09-04T02:44:00.640Z,45.61
2018-09-04T02:46:32.200Z,45.92
2018-09-04T02:49:03.732Z,46.69
2018-09-04T02:51:35.449Z,46.33
2018-09-04T02:54:06.791Z,46.16
2018-09-04T02:56:38.406Z,46.12
2018-09-04T02:59:09.782Z,46.20
2018-09-04T03:01:41.219Z,46.30
2018-09-04T03:04:12.734Z,46.11
2018-09-04T03:06:44.202Z,46.19
2018-09-04T03:09:15.703Z,46.09
2018-09-04T03:11:47.338Z,46.10
2018-09-04T03:14:18.769Z,46.76
2018-09-04T03:16:50.357Z,46.19
2018-09-04T03:19:21.794Z,46.13
2018-09-04T03:21:53.318Z,46.12
2018-09-04T03:24:24.827Z,46.53
2018-09-04T03:26:56.454Z,46.36
2018-09-04T03:29:28.380Z,46.35
2018-09-04T03:31:59.912Z,46.13
2018-09-04T03:34:31.515Z,46.34
2018-09-04T03:37:02.877Z,45.80
2018-09-04T03:39:34.413Z,46.49
2018-09-04T03:42:05.844Z,45.55
2018-09-04T03:44:37.309Z,46.22
2018-09-04T03:47:09.224Z,46.02
2018-09-04T03:49:40.725Z,46.22
2018-09-04T03:52:12.222Z,45.95
2018-09-04T03:54:43.675Z,46.04
2018-09-04T03:57:15.234Z,46.46
2018-09-04T03:59:46.758Z,46.13
2018-09-04T04:02:18.216Z,46.39
2018-09-04T04:04:49.679Z,46.74
2018-09-04T04:07:21.362Z,46.56
2018-09-04T04:09:52.882Z,47.53
2018-09-04T04:12:24.388Z,46.52
2018-09-04T04:14:55.827Z,46.24
2018-09-04T04:17:27.405Z,46.54
2018-09-04T04:19:58.882Z,46.92
2018-09-04T04:22:30.382Z,47.13
2018-09-04T04:25:02.199Z,47.47
2018-09-04T04:27:33.729Z,47.35
2018-09-04T04:30:05.321Z,46.95
2018-09-04T04:32:36.823Z,46.46
2018-09-04T04:35:08.727Z,46.62
2018-09-04T04:37:40.296Z,47.40
2018-09-04T04:40:11.794Z,47.39
2018-09-04T04:42:43.308Z,47.11
2018-09-04T04:45:14.874Z,46.80
2018-09-04T04:47:48.522Z,47.33
2018-09-04T04:52:57.596Z,47.51
2018-09-04T04:55:28.663Z,46.99
2018-09-04T04:57:59.697Z,47.05
2018-09-04T05:00:30.843Z,47.03
2018-09-04T05:03:01.702Z,47.16
2018-09-04T05:05:32.810Z,47.38
2018-09-04T05:08:03.848Z,47.10
2018-09-04T05:10:34.790Z,46.88
2018-09-04T05:13:05.888Z,47.52
2018-09-04T05:15:36.848Z,46.50
2018-09-04T05:18:08.202Z,46.92
2018-09-04T05:20:39.435Z,47.32
2018-09-04T05:23:10.639Z,47.63
2018-09-04T05:25:41.676Z,47.78
2018-09-04T05:28:12.742Z,47.06
2018-09-04T05:30:43.846Z,47.26
2018-09-04T05:33:19.182Z,47.28
2018-09-04T05:35:52.470Z,46.75
2018-09-04T05:38:23.640Z,47.09
2018-09-04T05:40:54.996Z,47.45
2018-09-04T05:43:29.884Z,47.48
2018-09-04T05:46:04.300Z,46.81
2018-09-04T05:48:35.810Z,47.32
2018-09-04T05:51:07.201Z,47.50
2018-09-04T05:53:38.712Z,47.53
2018-09-04T05:56:10.188Z,47.39
2018-09-04T05:58:41.703Z,46.37
2018-09-04T06:01:13.309Z,47.04
2018-09-04T06:03:44.790Z,47.13
2018-09-04T06:06:16.291Z,47.54
2018-09-04T06:08:47.708Z,46.98
2018-09-04T06:11:19.365Z,47.37
2018-09-04T06:13:50.979Z,47.18
2018-09-04T06:16:21.600Z,48.14
2018-09-04T06:18:53.002Z,46.90
2018-09-04T06:21:24.501Z,47.14
2018-09-04T06:23:56.207Z,47.72
2018-09-04T06:26:27.710Z,46.57
2018-09-04T06:28:59.207Z,47.35
2018-09-04T06:31:30.670Z,47.05
2018-09-04T06:34:02.424Z,46.46
2018-09-04T06:36:33.944Z,47.65
2018-09-04T06:39:04.572Z,46.34
2018-09-04T06:41:36.004Z,47.77
2018-09-04T06:44:07.561Z,47.46
2018-09-04T06:46:38.978Z,47.43
2018-09-04T06:49:10.399Z,46.81
2018-09-04T06:51:41.877Z,47.23
2018-09-04T06:54:13.682Z,46.57
2018-09-04T06:56:45.221Z,47.09
2018-09-04T06:59:16.671Z,46.76
2018-09-04T07:01:47.998Z,47.11
2018-09-04T07:04:19.607Z,46.69
2018-09-04T07:06:51.202Z,46.87
2018-09-04T07:09:22.725Z,47.07
2018-09-04T07:11:54.307Z,47.19
2018-09-04T07:14:25.824Z,46.85
2018-09-04T07:16:57.432Z,46.99
2018-09-04T07:19:28.790Z,46.77
2018-09-04T07:22:00.226Z,46.78
2018-09-04T07:27:04.233Z,47.27
2018-09-04T07:29:35.400Z,46.65
2018-09-04T07:32:06.649Z,47.12
2018-09-04T07:34:37.737Z,46.65
2018-09-04T07:37:08.858Z,47.04
2018-09-04T07:39:39.807Z,47.41
2018-09-04T07:42:10.883Z,46.76
2018-09-04T07:44:41.818Z,46.87
2018-09-04T07:47:12.620Z,45.91
2018-09-04T07:49:43.658Z,46.93
2018-09-04T07:52:14.697Z,46.69
2018-09-04T07:54:45.879Z,47.11
2018-09-04T07:57:16.993Z,46.95
2018-09-04T07:59:48.208Z,46.02
2018-09-04T08:02:40.526Z,47.57
2018-09-04T08:05:11.693Z,46.16
2018-09-04T08:07:42.696Z,46.05
2018-09-04T08:10:13.828Z,46.85
2018-09-04T08:12:44.791Z,45.94
2018-09-04T08:15:15.845Z,45.84
2018-09-04T08:17:47.513Z,45.45
2018-09-04T08:20:19.053Z,45.70
2018-09-04T08:22:50.668Z,46.59
2018-09-04T08:25:22.202Z,46.17
2018-09-04T08:27:53.669Z,47.41
2018-09-04T08:30:25.440Z,47.31
2018-09-04T08:32:56.901Z,46.50
2018-09-04T08:35:28.220Z,45.63
2018-09-04T08:38:00.871Z,45.66
2018-09-04T08:40:33.720Z,45.99
2018-09-04T08:43:05.222Z,45.98
2018-09-04T08:45:36.664Z,47.22
2018-09-04T08:48:13.205Z,47.50
2018-09-04T08:50:44.756Z,46.55
2018-09-04T08:53:16.756Z,46.41
2018-09-04T08:55:47.796Z,45.20
2018-09-04T08:58:18.996Z,45.63
2018-09-04T09:00:50.525Z,46.71
2018-09-04T09:03:21.893Z,46.69
2018-09-04T09:05:53.415Z,46.55
2018-09-04T09:08:24.796Z,45.55
2018-09-04T09:10:56.415Z,45.79
2018-09-04T09:13:27.832Z,47.51
2018-09-04T09:15:59.325Z,45.02
2018-09-04T09:18:30.780Z,45.07
2018-09-04T09:21:02.316Z,46.37
2018-09-04T09:23:33.802Z,47.54
2018-09-04T09:26:05.411Z,47.34
2018-09-04T09:28:36.819Z,45.92
2018-09-04T09:33:47.226Z,45.50
2018-09-04T09:36:18.399Z,44.96
2018-09-04T09:38:49.706Z,45.78
2018-09-04T09:41:20.678Z,46.88
2018-09-04T09:43:51.787Z,46.39
2018-09-04T09:46:23.327Z,46.80
2018-09-04T09:48:54.603Z,45.97
2018-09-04T09:51:25.655Z,47.18
2018-09-04T09:53:56.800Z,45.28
2018-09-04T09:56:27.659Z,47.05
2018-09-04T09:58:58.512Z,47.08
2018-09-04T10:01:34.534Z,45.72
2018-09-04T10:04:07.457Z,47.71
2018-09-04T10:06:38.588Z,46.83
2018-09-04T10:09:10.483Z,47.27
2018-09-04T10:11:41.696Z,46.78
2018-09-04T10:14:12.723Z,46.47
2018-09-04T10:16:43.775Z,46.44
2018-09-04T10:19:14.893Z,45.55
2018-09-04T10:21:45.914Z,45.45
2018-09-04T10:24:16.384Z,46.35
2018-09-04T10:26:47.676Z,45.71
2018-09-04T10:29:18.675Z,45.50
2018-09-04T10:31:49.648Z,46.53
2018-09-04T10:34:20.721Z,48.15
2018-09-04T10:36:51.824Z,47.22
2018-09-04T10:39:27.992Z,47.07
2018-09-04T10:41:58.912Z,47.46
2018-09-04T10:44:34.320Z,46.05
2018-09-04T10:47:05.508Z,46.50
2018-09-04T10:49:36.653Z,48.56
2018-09-04T10:52:07.815Z,47.13
2018-09-04T10:54:38.866Z,45.80
2018-09-04T10:57:09.861Z,47.44
2018-09-04T10:59:40.876Z,48.15
2018-09-04T11:02:11.873Z,47.60
2018-09-04T11:04:42.859Z,46.21
2018-09-04T11:07:13.849Z,46.10
2018-09-04T11:09:44.999Z,46.74
2018-09-04T11:12:15.375Z,46.11
2018-09-04T11:14:46.987Z,46.36
2018-09-04T11:17:18.080Z,45.73
2018-09-04T11:19:49.377Z,45.53
2018-09-04T11:22:20.559Z,46.48
2018-09-04T11:24:51.669Z,45.77
2018-09-04T11:27:22.713Z,46.46
2018-09-04T11:29:54.328Z,45.80
2018-09-04T11:32:25.592Z,45.87
2018-09-04T11:34:56.691Z,45.77
2018-09-04T11:37:27.705Z,45.74
2018-09-04T11:39:58.703Z,45.75
2018-09-04T11:42:29.672Z,45.48
2018-09-04T11:45:00.673Z,45.75
2018-09-04T11:47:31.685Z,45.88
2018-09-04T11:50:02.727Z,46.07
2018-09-04T11:52:33.847Z,45.65
2018-09-04T11:55:04.868Z,45.57
2018-09-04T11:57:35.796Z,46.15
2018-09-04T12:00:08.634Z,45.63
2018-09-04T12:02:40.784Z,45.75
2018-09-04T12:05:11.570Z,45.43
2018-09-04T12:07:42.768Z,45.74
2018-09-04T12:10:13.895Z,46.07
2018-09-04T12:12:44.370Z,45.55
2018-09-04T12:15:15.559Z,45.60
2018-09-04T12:17:46.649Z,46.08
2018-09-04T12:20:54.761Z,45.88
2018-09-04T12:23:25.752Z,45.74
2018-09-04T12:25:59.324Z,45.74
2018-09-04T12:28:30.612Z,45.40
2018-09-04T12:31:01.979Z,45.72
2018-09-04T12:33:33.216Z,45.98
2018-09-04T12:36:04.620Z,45.99
2018-09-04T12:38:37.361Z,45.67
2018-09-04T12:41:12.701Z,45.72
2018-09-04T12:43:43.777Z,45.39
2018-09-04T12:46:15.517Z,45.65
2018-09-04T12:48:49.473Z,45.19
2018-09-04T12:51:20.713Z,45.54
2018-09-04T12:53:51.797Z,45.41
2018-09-04T12:56:22.833Z,45.30
2018-09-04T12:58:53.601Z,45.43
2018-09-04T13:01:24.611Z,45.06
2018-09-04T13:03:55.733Z,45.52
2018-09-04T13:06:26.827Z,45.43
2018-09-04T13:08:58.449Z,44.92
2018-09-04T13:11:30.329Z,44.99
2018-09-04T13:14:01.805Z,45.28
2018-09-04T13:16:33.475Z,45.24
2018-09-04T13:21:45.807Z,45.09
2018-09-04T13:24:16.612Z,45.19
2018-09-04T13:26:47.442Z,44.89
2018-09-04T13:29:18.668Z,45.41
2018-09-04T13:31:49.701Z,45.40
2018-09-04T13:34:20.789Z,45.35
2018-09-04T13:36:51.918Z,45.22
2018-09-04T13:39:22.832Z,44.95
2018-09-04T13:41:53.839Z,45.21
2018-09-04T13:44:24.614Z,45.25
2018-09-04T13:46:55.686Z,45.02
2018-09-04T13:49:27.113Z,45.42
2018-09-04T13:51:58.413Z,45.57
2018-09-04T13:54:30.321Z,44.95
2018-09-04T13:57:01.652Z,45.26
2018-09-04T13:59:32.715Z,45.31
2018-09-04T14:02:03.743Z,45.12
2018-09-04T14:04:34.977Z,45.00
2018-09-04T14:07:05.441Z,45.27
2018-09-04T14:09:37.455Z,44.96
2018-09-04T14:12:08.587Z,44.75
2018-09-04T14:14:39.742Z,45.37
2018-09-04T14:17:14.507Z,45.26
2018-09-04T14:19:46.406Z,44.95
2018-09-04T14:22:17.661Z,45.21
2018-09-04T14:24:49.292Z,44.56
2018-09-04T14:27:20.498Z,45.05
2018-09-04T14:29:53.965Z,44.94
2018-09-04T14:32:23.487Z,44.84
2018-09-04T14:34:54.821Z,44.84
2018-09-04T14:37:25.623Z,44.84
2018-09-04T14:39:56.667Z,44.91
2018-09-04T14:42:27.720Z,44.82
2018-09-04T14:44:58.880Z,44.16
2018-09-04T14:47:30.454Z,43.22
2018-09-04T14:50:01.939Z,42.28
2018-09-04T14:52:32.563Z,43.70
2018-09-04T14:55:04.214Z,43.11
2018-09-04T14:57:35.683Z,43.74
2018-09-04T15:00:07.772Z,44.44
2018-09-04T15:02:39.329Z,44.77
2018-09-04T15:05:10.845Z,44.90
2018-09-04T15:07:42.244Z,44.60
2018-09-04T15:10:13.829Z,44.54
2018-09-04T15:12:45.232Z,44.39
2018-09-04T15:15:16.706Z,44.90
2018-09-04T15:17:48.219Z,44.63
2018-09-04T15:20:21.318Z,44.53
2018-09-04T15:22:52.777Z,44.61
2018-09-04T15:25:24.426Z,44.70
2018-09-04T15:27:55.782Z,44.63
2018-09-04T15:30:27.471Z,44.91
2018-09-04T15:32:58.786Z,44.95
2018-09-04T15:35:30.350Z,44.83
2018-09-04T15:38:03.281Z,44.75
2018-09-04T15:40:34.765Z,44.95
2018-09-04T15:43:06.325Z,43.90
2018-09-04T15:45:37.885Z,45.03
2018-09-04T15:48:09.394Z,44.77
2018-09-04T15:50:40.986Z,45.12
2018-09-04T15:53:12.830Z,45.17
2018-09-04T15:55:44.449Z,43.61
2018-09-04T15:58:16.708Z,45.09
2018-09-04T16:00:48.344Z,44.90
2018-09-04T16:03:19.819Z,45.23
2018-09-04T16:05:51.437Z,45.11
2018-09-04T16:08:22.925Z,45.17
2018-09-04T16:10:54.759Z,44.84
2018-09-04T16:13:26.316Z,45.17
2018-09-04T16:15:57.788Z,44.91
2018-09-04T16:18:29.325Z,45.06
2018-09-04T16:21:01.001Z,44.92
2018-09-04T16:23:37.666Z,45.28
2018-09-04T16:26:11.537Z,44.93
2018-09-04T16:28:42.851Z,44.93
2018-09-04T16:31:14.595Z,45.40
2018-09-04T16:33:45.998Z,45.36
2018-09-04T16:36:17.613Z,45.29
2018-09-04T16:38:49.227Z,44.84
2018-09-04T16:41:20.872Z,45.23
2018-09-04T16:43:52.410Z,45.35
2018-09-04T16:46:24.522Z,45.20
2018-09-04T16:48:55.980Z,44.93
2018-09-04T16:51:27.694Z,45.33
2018-09-04T16:53:59.208Z,45.25
2018-09-04T16:56:30.753Z,44.98
2018-09-04T16:59:02.323Z,45.09
2018-09-04T17:01:33.907Z,44.96
2018-09-04T17:04:04.554Z,44.92
2018-09-04T17:06:36.206Z,45.31
2018-09-04T17:09:09.441Z,45.35
2018-09-04T17:11:40.853Z,45.03
2018-09-04T17:14:12.422Z,45.44
2018-09-04T17:16:44.561Z,45.36
2018-09-04T17:19:16.235Z,45.15
2018-09-04T17:21:47.765Z,45.25
2018-09-04T17:24:19.415Z,45.26
2018-09-04T17:26:50.897Z,45.28
2018-09-04T17:29:22.401Z,45.24
2018-09-04T17:31:53.851Z,45.30
2018-09-04T17:34:25.514Z,44.76
2018-09-04T17:36:57.004Z,44.75
2018-09-04T17:39:28.776Z,44.73
2018-09-04T17:42:00.312Z,44.81
2018-09-04T17:44:31.813Z,44.78
2018-09-04T17:47:03.476Z,44.64
2018-09-04T17:49:34.922Z,44.31
2018-09-04T17:52:05.553Z,44.42
2018-09-04T17:54:53.819Z,44.57
2018-09-04T17:57:25.218Z,44.16
2018-09-04T17:59:56.746Z,44.36
2018-09-04T18:02:28.023Z,44.36
2018-09-04T18:04:59.371Z,44.11
2018-09-04T18:07:30.897Z,43.89
2018-09-04T18:10:02.348Z,43.83
2018-09-04T18:12:33.772Z,43.77
2018-09-04T18:15:05.317Z,43.73
2018-09-04T18:17:36.824Z,43.45
2018-09-04T18:20:08.626Z,43.99
2018-09-04T18:22:40.210Z,42.99
2018-09-04T18:25:11.702Z,43.59
2018-09-04T18:27:43.802Z,43.85
2018-09-04T18:30:15.206Z,43.71
2018-09-04T18:32:46.661Z,43.36
2018-09-04T18:35:17.983Z,43.53
2018-09-04T18:37:49.368Z,43.97
2018-09-04T18:40:20.747Z,43.97
2018-09-04T18:42:52.228Z,43.74
2018-09-04T18:45:50.338Z,43.18
2018-09-04T18:48:26.240Z,43.23
2018-09-04T18:50:57.766Z,43.43
2018-09-04T18:53:29.432Z,43.32
2018-09-04T18:56:00.868Z,43.32
2018-09-04T18:58:32.431Z,42.91
2018-09-04T19:01:03.828Z,43.42
2018-09-04T19:03:35.540Z,42.77
2018-09-04T19:06:07.247Z,43.15
2018-09-04T19:08:38.751Z,43.19
2018-09-04T19:11:10.206Z,43.08
2018-09-04T19:13:41.680Z,43.39
2018-09-04T19:16:13.199Z,43.68
2018-09-04T19:18:44.679Z,43.06
2018-09-04T19:21:16.222Z,42.96
2018-09-04T19:23:48.412Z,42.80
2018-09-04T19:26:19.876Z,43.42
2018-09-04T19:28:51.403Z,43.02
2018-09-04T19:31:22.751Z,43.29
2018-09-04T19:33:54.212Z,43.17
2018-09-04T19:36:25.828Z,43.28
2018-09-04T19:38:57.667Z,43.01
2018-09-04T19:41:29.197Z,43.00
2018-09-04T19:44:01.216Z,43.02
2018-09-04T19:46:32.983Z,42.87
2018-09-04T19:49:04.434Z,42.76
2018-09-04T20:01:59.431Z,42.22
2018-09-04T20:04:30.659Z,42.43
2018-09-04T20:07:02.296Z,43.37
2018-09-04T20:09:33.781Z,43.38
2018-09-04T20:12:05.389Z,42.38
2018-09-04T20:14:36.909Z,42.22
2018-09-04T20:17:07.565Z,43.25
2018-09-04T20:19:39.435Z,42.21
2018-09-04T20:22:11.644Z,43.33
2018-09-04T20:24:43.535Z,42.99
2018-09-04T20:27:17.576Z,43.33
2018-09-04T20:29:49.191Z,42.71
2018-09-04T20:32:23.588Z,42.68
2018-09-04T20:34:55.904Z,42.31
2018-09-04T20:37:30.167Z,42.71
2018-09-04T20:40:01.837Z,42.55
2018-09-04T20:42:33.542Z,43.40
2018-09-04T20:45:05.051Z,42.67
2018-09-04T20:47:36.654Z,43.47
2018-09-04T20:50:08.277Z,42.91
2018-09-04T20:52:39.748Z,42.65
2018-09-04T20:55:11.414Z,42.59
2018-09-04T20:57:41.527Z,42.59
2018-09-04T21:00:35.861Z,42.96
2018-09-04T21:03:30.375Z,43.33
2018-09-04T21:06:24.672Z,43.13
2018-09-04T21:09:05.784Z,43.85
2018-09-04T21:11:37.318Z,43.43
2018-09-04T21:14:08.571Z,43.29
2018-09-04T21:16:40.208Z,43.14
2018-09-04T21:19:11.644Z,43.63
2018-09-04T21:21:43.226Z,43.87
2018-09-04T21:24:14.869Z,43.55
2018-09-04T21:26:46.488Z,43.21
2018-09-04T21:29:18.192Z,43.57
2018-09-04T21:31:49.785Z,43.32
2018-09-04T21:34:21.381Z,43.44
2018-09-04T21:36:52.927Z,43.70
2018-09-04T21:39:24.379Z,43.81
2018-09-04T21:41:56.656Z,43.87
2018-09-04T21:44:28.065Z,43.46
2018-09-04T21:46:59.643Z,43.49
2018-09-04T21:49:31.210Z,43.75
2018-09-04T21:52:02.788Z,43.39
2018-09-04T21:54:34.302Z,43.81
2018-09-04T21:57:05.729Z,43.49
2018-09-04T21:59:37.318Z,43.63
2018-09-04T22:02:08.983Z,43.39
2018-09-04T22:04:40.650Z,43.90
2018-09-04T22:07:12.206Z,44.00
2018-09-04T22:09:43.760Z,43.80
2018-09-04T22:12:15.423Z,43.57
2018-09-04T22:14:46.985Z,43.52
2018-09-04T22:17:18.658Z,43.46
2018-09-04T22:19:50.228Z,43.63
2018-09-04T22:22:21.767Z,43.67
2018-09-04T22:24:53.718Z,43.77
2018-09-04T22:27:25.323Z,43.82
2018-09-04T22:29:56.866Z,43.84
2018-09-04T22:32:28.402Z,44.10
2018-09-04T22:35:00.398Z,44.01
2018-09-04T22:37:31.746Z,43.73
2018-09-04T22:40:03.365Z,43.86
2018-09-04T22:42:34.784Z,43.77
2018-09-04T22:45:06.299Z,44.12
2018-09-04T22:47:37.833Z,44.00
2018-09-04T22:50:14.437Z,43.79
2018-09-04T22:52:45.798Z,44.20
2018-09-04T22:55:17.350Z,44.22
2018-09-04T22:57:48.850Z,44.06
2018-09-04T23:00:20.437Z,44.24
2018-09-04T23:02:51.807Z,44.14
2018-09-04T23:05:23.378Z,44.14
2018-09-04T23:07:54.915Z,43.90
2018-09-04T23:10:25.547Z,43.92
2018-09-04T23:12:57.222Z,43.83
2018-09-04T23:15:28.772Z,43.88
2018-09-04T23:18:00.189Z,44.09
2018-09-04T23:20:31.743Z,44.29
2018-09-04T23:23:03.307Z,44.13
2018-09-04T23:25:34.760Z,43.93
2018-09-04T23:28:06.219Z,44.11
2018-09-04T23:30:37.704Z,43.92
2018-09-04T23:33:09.042Z,44.07
2018-09-04T23:35:39.618Z,43.90
2018-09-04T23:38:11.187Z,43.94
2018-09-04T23:40:42.731Z,44.09
2018-09-04T23:43:14.318Z,44.10
2018-09-04T23:45:45.788Z,44.40
2018-09-04T23:48:17.203Z,44.20
2018-09-04T23:50:48.663Z,44.31
2018-09-04T23:53:20.217Z,43.81
2018-09-04T23:55:51.683Z,44.46
2018-09-04T23:58:23.199Z,43.84
